GMMZ

Details ICAO GMMZ (OZZ)
Name OUARZAZATE
Region Morocco
Timezone Africa/Casablanca (UTC+0.0)
Plans Departing 18
Arriving 25
Stats Elevation 3,782 ft / 1,153 m (AMSL)
Location 30.939076° -6.909475°
Runways 1
Magnetic Variation 1.680° W
Sunrise 2017-12-16 07:20:12 UTC / 2017-12-16 07:20:12 Local
Sunset 2017-12-16 17:29:07 UTC / 2017-12-16 17:29:07 Local
Advertisement - Login to hide

Runways

ID Width Length Bearing (true) Bearing (mag) Surface Threshold Offset Overrun Length
12 148 ft / 45 m 9,802 ft / 2,988 m 116.92° 118.60° Asphalt 0 ft / 0 m 66 ft / 20 m
30 148 ft / 45 m 9,802 ft / 2,988 m 296.93° 298.61° Asphalt 0 ft / 0 m 66 ft / 20 m

Approach Navaids

Runway Type Ident Frequency Range Bearing (true) Bearing (mag) Slope Elevation
30 Localiser IRZ 110.30 MHz 18 nm / 33 km 296.98° 298.66° - 3,782 ft / 1,153 m (AMSL)
30 Glidescope IRZ 110.30 MHz 10 nm / 19 km 296.93° 298.61° 3.50° 3,782 ft / 1,153 m (AMSL)
30 DME IRZ 110.30 MHz 18 nm / 33 km - - - 3,782 ft / 1,153 m (AMSL)

Map

Weather


0- 5 10 15 20 25 30 35+ Temperature / ° C

Clouds and Precipitation
Forecast for 2017-12-16 06:00 UTC. Updated 20 minutes ago

Ground ~20,000 ft ~40,000 ft Winds

METAR

GMMZ 160300Z 2804KT CAVOK 05/M03 Q1018 NOSIG

TAF

TAF GMMZ 152300Z 1600/1706 VRB02KT CAVOK

Frequencies

Tower 118.10 MHz TWR
Tower 119.30 MHz TWR
Warning: Do not use this data for real-world aviation or navigation. No guarantee of current accuracy is given.